Back to Top

Language: 

My Weather Underground Personal Weather Station Historical Data with Graphs...

Delerius Weather Station Historical Data
Daily Summary for October 18, 2017 Units:  English    Metric   Both
« Previous Day
Next Day »
Daily Weekly Monthly Yearly Custom
  High: Low: Average:
Temperature: 55.2 °F 45.0 °F 51.1 °F
Dew Point: 50.6 °F 42.8 °F 46.6 °F
Humidity: 96 % 71 % 85 %
Wind Speed: 6.0 mph 0.0 mph 1.6 mph
Wind Gust: 12.0 mph - -
Wind:- - ESE
Pressure: 30.00 in 29.79 in -
Precipitation: 0.02 in    
Historical Graphs
 
 
Tabular Data for October 18, 2017
Time Temperature Dew Point Pressure Wind Wind Speed Wind Gust Humidity Rainfall Rate (Hourly) solar Conditions
00:04 48.7 °F 44.1 °F 30.00 in Calm     84 % 0.00 in 0 W/m2
00:09 48.6 °F 43.9 °F 30.00 in Calm     84 % 0.00 in 0 W/m2
00:14 48.6 °F 44.3 °F 30.00 in Calm     85 % 0.00 in 0 W/m2
00:19 48.6 °F 44.3 °F 30.00 in Calm     85 % 0.00 in 0 W/m2
00:24 48.6 °F 44.3 °F 30.00 in Calm     85 % 0.00 in 0 W/m2
00:29 48.6 °F 44.3 °F 30.00 in Calm     85 % 0.00 in 0 W/m2
00:34 48.6 °F 44.3 °F 30.00 in Calm   1.0 mph 85 % 0.00 in 0 W/m2
00:39 48.6 °F 44.3 °F 30.00 in Calm   2.0 mph 85 % 0.00 in 0 W/m2
00:44 48.6 °F 44.3 °F 30.00 in Calm   2.0 mph 85 % 0.00 in 0 W/m2
00:49 48.6 °F 44.3 °F 30.00 in Calm     85 % 0.00 in 0 W/m2
00:54 48.6 °F 44.3 °F 30.00 in Calm     85 % 0.00 in 0 W/m2
01:05 48.6 °F 44.3 °F 30.00 in Calm   2.0 mph 85 % 0.00 in 0 W/m2
01:10 48.6 °F 44.3 °F 29.99 in Calm     85 % 0.00 in 0 W/m2
01:15 48.6 °F 44.3 °F 29.99 in Calm     85 % 0.00 in 0 W/m2
01:20 48.6 °F 44.3 °F 29.99 in Calm     85 % 0.00 in 0 W/m2
01:25 48.6 °F 44.3 °F 29.99 in Calm     85 % 0.00 in 0 W/m2
01:30 48.6 °F 44.3 °F 29.99 in Calm     85 % 0.00 in 0 W/m2
01:35 48.6 °F 44.3 °F 29.99 in Calm     85 % 0.00 in 0 W/m2
01:40 48.6 °F 44.3 °F 29.99 in Calm     85 % 0.00 in 0 W/m2
01:45 48.7 °F 44.7 °F 29.99 in Calm     86 % 0.00 in 0 W/m2
01:50 48.7 °F 44.7 °F 29.98 in Calm     86 % 0.00 in 0 W/m2
01:55 48.7 °F 44.7 °F 29.98 in Calm     86 % 0.00 in 0 W/m2
02:00 48.7 °F 44.7 °F 29.99 in Calm     86 % 0.00 in 0 W/m2
02:05 48.7 °F 44.7 °F 29.99 in Calm     86 % 0.00 in 0 W/m2
02:10 48.7 °F 44.7 °F 29.98 in Calm     86 % 0.00 in 0 W/m2
02:15 48.7 °F 44.7 °F 29.98 in Calm     86 % 0.00 in 0 W/m2
02:20 48.7 °F 44.7 °F 29.98 in Calm     86 % 0.00 in 0 W/m2
02:25 48.9 °F 44.9 °F 29.98 in Calm     86 % 0.00 in 0 W/m2
02:30 48.9 °F 44.9 °F 29.98 in Calm     86 % 0.00 in 0 W/m2
02:35 48.9 °F 44.9 °F 29.98 in Calm     86 % 0.00 in 0 W/m2
02:40 48.7 °F 44.7 °F 29.98 in Calm     86 % 0.00 in 0 W/m2
02:45 48.7 °F 44.7 °F 29.98 in Calm     86 % 0.00 in 0 W/m2
02:50 48.7 °F 44.7 °F 29.98 in Calm     86 % 0.00 in 0 W/m2
02:55 48.7 °F 44.7 °F 29.97 in Calm     86 % 0.00 in 0 W/m2
03:00 48.7 °F 44.7 °F 29.97 in Calm     86 % 0.00 in 0 W/m2
03:05 48.7 °F 44.7 °F 29.97 in Calm     86 % 0.00 in 0 W/m2
03:10 48.9 °F 44.9 °F 29.97 in Calm     86 % 0.00 in 0 W/m2
03:15 48.9 °F 44.9 °F 29.97 in Calm     86 % 0.00 in 0 W/m2
03:20 48.9 °F 44.9 °F 29.97 in Calm     86 % 0.00 in 0 W/m2
03:25 48.9 °F 44.9 °F 29.97 in Calm     86 % 0.00 in 0 W/m2
03:30 48.9 °F 44.9 °F 29.96 in Calm     86 % 0.00 in 0 W/m2
03:35 48.9 °F 45.2 °F 29.96 in Calm     87 % 0.00 in 0 W/m2
03:40 49.1 °F 45.4 °F 29.96 in Calm     87 % 0.00 in 0 W/m2
03:45 49.1 °F 45.4 °F 29.96 in Calm     87 % 0.00 in 0 W/m2
03:50 48.9 °F 45.2 °F 29.96 in Calm     87 % 0.00 in 0 W/m2
03:55 48.9 °F 45.2 °F 29.95 in Calm     87 % 0.00 in 0 W/m2
04:01 48.9 °F 45.5 °F 29.95 in Calm     88 % 0.00 in 0 W/m2
04:06 48.9 °F 45.5 °F 29.95 in Calm     88 % 0.00 in 0 W/m2
04:11 48.9 °F 45.5 °F 29.95 in Calm     88 % 0.00 in 0 W/m2
04:17 48.9 °F 45.5 °F 29.95 in Calm     88 % 0.00 in 0 W/m2
04:21 48.7 °F 45.3 °F 29.95 in Calm     88 % 0.00 in 0 W/m2
04:24 48.7 °F 45.3 °F 29.95 in Calm     88 % 0.00 in 0 W/m2
04:26 48.7 °F 45.3 °F 29.95 in Calm     88 % 0.00 in 0 W/m2
04:28 48.7 °F 45.3 °F 29.95 in Calm     88 % 0.00 in 0 W/m2
04:32 48.7 °F 45.3 °F 29.95 in Calm     88 % 0.00 in 0 W/m2
04:37 48.7 °F 45.3 °F 29.95 in Calm     88 % 0.00 in 0 W/m2
04:41 48.7 °F 45.3 °F 29.95 in Calm     88 % 0.00 in 0 W/m2
04:46 48.7 °F 45.3 °F 29.95 in Calm     88 % 0.00 in 0 W/m2
04:51 48.7 °F 45.3 °F 29.95 in Calm     88 % 0.00 in 0 W/m2
04:56 48.6 °F 45.2 °F 29.95 in Calm     88 % 0.00 in 0 W/m2
05:01 48.6 °F 45.2 °F 29.95 in Calm     88 % 0.00 in 0 W/m2
05:06 48.4 °F 45.0 °F 29.94 in Calm     88 % 0.00 in 0 W/m2
05:11 48.4 °F 45.0 °F 29.94 in Calm     88 % 0.00 in 0 W/m2
05:16 48.2 °F 44.8 °F 29.94 in Calm     88 % 0.00 in 0 W/m2
05:21 47.8 °F 44.5 °F 29.94 in Calm     88 % 0.00 in 0 W/m2
05:26 47.8 °F 44.5 °F 29.94 in Calm     88 % 0.00 in 0 W/m2
05:31 47.5 °F 44.1 °F 29.94 in Calm     88 % 0.00 in 0 W/m2
05:36 47.3 °F 43.9 °F 29.94 in Calm     88 % 0.00 in 0 W/m2
05:41 47.1 °F 44.0 °F 29.94 in Calm     89 % 0.00 in 0 W/m2
05:46 46.8 °F 43.7 °F 29.94 in Calm     89 % 0.00 in 0 W/m2
05:51 46.8 °F 43.7 °F 29.94 in Calm     89 % 0.00 in 0 W/m2
05:56 46.6 °F 43.5 °F 29.93 in Calm     89 % 0.00 in 0 W/m2
06:01 46.4 °F 43.6 °F 29.94 in Calm     90 % 0.00 in 0 W/m2
06:06 46.2 °F 43.4 °F 29.94 in Calm     90 % 0.00 in 0 W/m2
06:11 46.0 °F 43.3 °F 29.94 in Calm     90 % 0.00 in 0 W/m2
06:16 46.0 °F 43.6 °F 29.94 in Calm     91 % 0.00 in 0 W/m2
06:21 45.9 °F 43.4 °F 29.94 in Calm     91 % 0.00 in 0 W/m2
06:26 45.9 °F 43.4 °F 29.94 in Calm     91 % 0.00 in 0 W/m2
06:31 45.9 °F 43.4 °F 29.94 in Calm     91 % 0.00 in 0 W/m2
06:36 45.9 °F 43.4 °F 29.93 in Calm     91 % 0.00 in 0 W/m2
06:41 46.0 °F 43.8 °F 29.93 in Calm     92 % 0.00 in 0 W/m2
06:46 46.0 °F 43.8 °F 29.93 in Calm     92 % 0.00 in 0 W/m2
06:51 46.0 °F 43.8 °F 29.93 in Calm     92 % 0.00 in 0 W/m2
06:56 46.0 °F 43.8 °F 29.93 in Calm     92 % 0.00 in 0 W/m2
07:01 45.9 °F 43.7 °F 29.93 in Calm     92 % 0.00 in 0 W/m2
07:06 45.9 °F 43.7 °F 29.93 in Calm     92 % 0.00 in 0 W/m2
07:11 45.7 °F 43.2 °F 29.93 in Calm     91 % 0.00 in 0 W/m2
07:16 45.3 °F 42.8 °F 29.93 in Calm     91 % 0.00 in 0 W/m2
07:21 45.3 °F 42.8 °F 29.93 in Calm     91 % 0.00 in 0 W/m2
07:26 45.1 °F 43.0 °F 29.93 in Calm     92 % 0.00 in 0 W/m2
07:31 45.0 °F 42.8 °F 29.94 in Calm     92 % 0.00 in 0 W/m2
07:36 45.0 °F 42.8 °F 29.94 in Calm     92 % 0.00 in 0 W/m2
07:41 45.1 °F 43.2 °F 29.94 in Calm     93 % 0.00 in 0 W/m2
07:46 45.1 °F 43.2 °F 29.94 in Calm     93 % 0.00 in 0 W/m2
07:51 45.3 °F 43.4 °F 29.94 in Calm     93 % 0.00 in 5 W/m2
07:56 45.3 °F 43.4 °F 29.94 in Calm     93 % 0.00 in 7 W/m2
08:02 45.5 °F 43.6 °F 29.94 in Calm     93 % 0.00 in 11 W/m2
08:07 45.7 °F 43.8 °F 29.94 in Calm     93 % 0.00 in 11 W/m2
08:12 45.9 °F 44.2 °F 29.94 in Calm     94 % 0.00 in 16 W/m2
08:17 46.0 °F 44.1 °F 29.94 in Calm     93 % 0.00 in 18 W/m2
08:22 46.0 °F 44.1 °F 29.95 in Calm     93 % 0.00 in 16 W/m2
08:27 46.2 °F 44.3 °F 29.95 in Calm     93 % 0.00 in 21 W/m2
08:32 46.2 °F 44.3 °F 29.95 in Calm     93 % 0.00 in 30 W/m2
08:37 46.2 °F 44.3 °F 29.95 in Calm     93 % 0.00 in 44 W/m2
08:42 46.4 °F 44.5 °F 29.95 in Calm     93 % 0.00 in 56 W/m2
08:47 46.6 °F 44.7 °F 29.95 in Calm     93 % 0.00 in 120 W/m2
08:52 46.9 °F 45.3 °F 29.95 in Calm     94 % 0.00 in 146 W/m2
08:57 47.5 °F 45.8 °F 29.95 in Calm     94 % 0.00 in 127 W/m2
09:02 47.8 °F 45.9 °F 29.95 in Calm     93 % 0.00 in 127 W/m2
09:07 48.4 °F 46.4 °F 29.94 in Calm     93 % 0.00 in 156 W/m2
09:12 48.6 °F 46.3 °F 29.95 in Calm     92 % 0.00 in 148 W/m2
09:17 49.3 °F 47.1 °F 29.94 in Calm     92 % 0.00 in 162 W/m2
09:22 49.6 °F 46.8 °F 29.95 in Calm     90 % 0.00 in 171 W/m2
09:27 50.0 °F 47.2 °F 29.95 in Calm   1.0 mph 90 % 0.00 in 221 W/m2
09:32 50.5 °F 47.4 °F 29.95 in Calm   1.0 mph 89 % 0.00 in 206 W/m2
09:37 50.9 °F 47.2 °F 29.95 in Calm     87 % 0.00 in 195 W/m2
09:42 51.4 °F 47.7 °F 29.95 in Calm     87 % 0.00 in 199 W/m2
09:47 52.0 °F 47.6 °F 29.94 in Calm     85 % 0.00 in 199 W/m2
09:52 52.2 °F 47.5 °F 29.94 in Calm   1.0 mph 84 % 0.00 in 206 W/m2
09:57 52.3 °F 47.3 °F 29.94 in SE 1.0 mph 5.0 mph 83 % 0.00 in 244 W/m2
10:02 52.3 °F 47.3 °F 29.94 in SE 1.0 mph 5.0 mph 83 % 0.00 in 139 W/m2
10:07 52.3 °F 47.0 °F 29.94 in Calm   4.0 mph 82 % 0.00 in 141 W/m2
10:12 52.3 °F 47.0 °F 29.94 in East 1.0 mph 4.0 mph 82 % 0.00 in 146 W/m2
10:17 52.3 °F 47.0 °F 29.94 in Calm   2.0 mph 82 % 0.00 in 134 W/m2
10:22 52.3 °F 47.0 °F 29.94 in Calm   3.0 mph 82 % 0.00 in 128 W/m2
10:27 52.3 °F 47.0 °F 29.94 in East 1.0 mph 5.0 mph 82 % 0.00 in 125 W/m2
10:32 52.3 °F 47.0 °F 29.94 in East 1.0 mph 5.0 mph 82 % 0.00 in 123 W/m2
10:37 52.2 °F 46.8 °F 29.94 in East 1.0 mph 4.0 mph 82 % 0.00 in 111 W/m2
10:42 52.2 °F 47.2 °F 29.94 in East 1.0 mph 5.0 mph 83 % 0.00 in 113 W/m2
10:47 52.2 °F 47.2 °F 29.94 in ENE 1.0 mph 5.0 mph 83 % 0.00 in 107 W/m2
10:52 52.0 °F 47.0 °F 29.94 in ENE 2.0 mph 6.0 mph 83 % 0.00 in 118 W/m2
10:57 52.2 °F 47.2 °F 29.94 in ENE 1.0 mph 6.0 mph 83 % 0.00 in 120 W/m2
11:02 52.2 °F 47.2 °F 29.94 in Calm   4.0 mph 83 % 0.00 in 146 W/m2
11:07 52.3 °F 47.3 °F 29.93 in Calm   2.0 mph 83 % 0.00 in 153 W/m2
11:12 52.5 °F 47.2 °F 29.93 in East 1.0 mph 5.0 mph 82 % 0.00 in 144 W/m2
11:17 52.5 °F 47.2 °F 29.93 in East 1.0 mph 5.0 mph 82 % 0.00 in 158 W/m2
11:22 52.5 °F 47.2 °F 29.93 in East 1.0 mph 5.0 mph 82 % 0.00 in 153 W/m2
11:27 52.5 °F 47.2 °F 29.93 in East 1.0 mph 5.0 mph 82 % 0.00 in 142 W/m2
11:32 52.9 °F 47.5 °F 29.93 in Calm   3.0 mph 82 % 0.00 in 179 W/m2
11:37 53.1 °F 47.7 °F 29.93 in East 1.0 mph 5.0 mph 82 % 0.00 in 190 W/m2
11:42 53.2 °F 47.6 °F 29.93 in East 2.0 mph 6.0 mph 81 % 0.00 in 185 W/m2
11:47 53.2 °F 47.2 °F 29.93 in East 3.0 mph 6.0 mph 80 % 0.00 in 179 W/m2
11:52 53.2 °F 47.2 °F 29.92 in East 2.0 mph 6.0 mph 80 % 0.00 in 174 W/m2
11:57 53.4 °F 47.4 °F 29.92 in East 2.0 mph 6.0 mph 80 % 0.00 in 178 W/m2
12:02 53.6 °F 47.2 °F 29.92 in East 3.0 mph 6.0 mph 79 % 0.00 in 188 W/m2
12:07 53.8 °F 47.4 °F 29.92 in East 2.0 mph 6.0 mph 79 % 0.00 in 230 W/m2
12:09 53.8 °F 47.4 °F 29.92 in East 2.0 mph 6.0 mph 79 % 0.00 in 218 W/m2
12:14 54.0 °F 47.9 °F 29.92 in East 2.0 mph 5.0 mph 80 % 0.00 in 195 W/m2
12:19 54.3 °F 47.9 °F 29.92 in ESE 2.0 mph 6.0 mph 79 % 0.00 in 185 W/m2
12:24 54.3 °F 47.3 °F 29.92 in ESE 3.0 mph 8.0 mph 77 % 0.00 in 186 W/m2
12:29 54.5 °F 47.4 °F 29.91 in ESE 4.0 mph 8.0 mph 77 % 0.00 in 178 W/m2
12:34 54.5 °F 47.4 °F 29.91 in East 3.0 mph 8.0 mph 77 % 0.00 in 178 W/m2
12:39 54.7 °F 46.9 °F 29.91 in East 3.0 mph 7.0 mph 75 % 0.00 in 156 W/m2
12:44 54.7 °F 47.3 °F 29.91 in East 3.0 mph 7.0 mph 76 % 0.00 in 171 W/m2
12:49 54.7 °F 46.9 °F 29.91 in ESE 3.0 mph 8.0 mph 75 % 0.00 in 158 W/m2
12:54 54.7 °F 46.9 °F 29.91 in ESE 5.0 mph 8.0 mph 75 % 0.00 in 176 W/m2
12:59 54.7 °F 46.9 °F 29.91 in ESE 4.0 mph 8.0 mph 75 % 0.00 in 176 W/m2
13:00 54.7 °F 46.9 °F 29.91 in ESE 4.0 mph 8.0 mph 75 % 0.00 in 176 W/m2
13:05 54.7 °F 46.9 °F 29.91 in ESE 4.0 mph 8.0 mph 75 % 0.00 in 156 W/m2
13:10 54.7 °F 46.9 °F 29.91 in ESE 5.0 mph 8.0 mph 75 % 0.00 in 221 W/m2
13:15 54.7 °F 46.9 °F 29.91 in SE 5.0 mph 10.0 mph 75 % 0.00 in 199 W/m2
13:20 54.7 °F 46.6 °F 29.90 in SE 6.0 mph 10.0 mph 74 % 0.00 in 153 W/m2
13:25 54.7 °F 46.6 °F 29.90 in SE 5.0 mph 9.0 mph 74 % 0.00 in 174 W/m2
13:30 54.9 °F 46.7 °F 29.90 in SE 5.0 mph 8.0 mph 74 % 0.00 in 179 W/m2
13:36 55.0 °F 46.5 °F 29.90 in ESE 4.0 mph 8.0 mph 73 % 0.00 in 142 W/m2
13:41 55.0 °F 46.2 °F 29.90 in ESE 5.0 mph 8.0 mph 72 % 0.00 in 111 W/m2
13:46 55.0 °F 46.2 °F 29.89 in ESE 5.0 mph 8.0 mph 72 % 0.00 in 128 W/m2
13:51 55.0 °F 46.5 °F 29.89 in East 3.0 mph 7.0 mph 73 % 0.00 in 128 W/m2
13:56 55.0 °F 46.2 °F 29.89 in East 3.0 mph 8.0 mph 72 % 0.00 in 114 W/m2
14:01 55.2 °F 46.3 °F 29.89 in ESE 5.0 mph 8.0 mph 72 % 0.00 in 120 W/m2
14:06 55.2 °F 46.3 °F 29.88 in ESE 5.0 mph 8.0 mph 72 % 0.00 in 130 W/m2
14:11 55.2 °F 46.7 °F 29.88 in East 4.0 mph 8.0 mph 73 % 0.00 in 120 W/m2
14:16 55.2 °F 46.7 °F 29.88 in East 4.0 mph 8.0 mph 73 % 0.00 in 113 W/m2
14:21 55.2 °F 46.7 °F 29.88 in ESE 3.0 mph 7.0 mph 73 % 0.00 in 84 W/m2
14:26 55.2 °F 46.0 °F 29.88 in ESE 4.0 mph 9.0 mph 71 % 0.00 in 81 W/m2
14:31 55.2 °F 46.3 °F 29.88 in SE 4.0 mph 9.0 mph 72 % 0.00 in 72 W/m2
14:36 55.2 °F 46.7 °F 29.88 in ESE 3.0 mph 7.0 mph 73 % 0.00 in 77 W/m2
14:41 55.2 °F 47.1 °F 29.88 in ESE 4.0 mph 7.0 mph 74 % 0.00 in 77 W/m2
14:46 55.2 °F 47.4 °F 29.88 in East 3.0 mph 6.0 mph 75 % 0.00 in 90 W/m2
14:51 55.2 °F 47.4 °F 29.88 in East 3.0 mph 6.0 mph 75 % 0.00 in 76 W/m2
14:56 55.2 °F 47.4 °F 29.87 in East 3.0 mph 6.0 mph 75 % 0.00 in 81 W/m2
15:06 55.0 °F 47.3 °F 29.87 in East 3.0 mph 6.0 mph 75 % 0.00 in 63 W/m2
15:11 55.0 °F 46.5 °F 29.87 in ESE 3.0 mph 7.0 mph 73 % 0.00 in 53 W/m2
15:16 54.9 °F 46.0 °F 29.87 in ESE 4.0 mph 8.0 mph 72 % 0.00 in 51 W/m2
15:21 55.0 °F 46.2 °F 29.87 in SE 3.0 mph 8.0 mph 72 % 0.00 in 56 W/m2
15:26 55.0 °F 46.5 °F 29.87 in SE 3.0 mph 7.0 mph 73 % 0.00 in 44 W/m2
15:31 54.9 °F 46.7 °F 29.88 in SE 3.0 mph 7.0 mph 74 % 0.00 in 33 W/m2
15:36 54.9 °F 47.1 °F 29.87 in SE 3.0 mph 6.0 mph 75 % 0.00 in 33 W/m2
15:41 54.7 °F 46.9 °F 29.87 in ESE 3.0 mph 6.0 mph 75 % 0.00 in 37 W/m2
15:46 54.7 °F 47.3 °F 29.87 in ESE 3.0 mph 6.0 mph 76 % 0.00 in 47 W/m2
15:51 54.5 °F 47.1 °F 29.87 in ESE 4.0 mph 8.0 mph 76 % 0.00 in 51 W/m2
15:56 54.3 °F 46.6 °F 29.87 in ESE 5.0 mph 8.0 mph 75 % 0.00 in 39 W/m2
16:01 54.3 °F 46.9 °F 29.86 in ESE 3.0 mph 8.0 mph 76 % 0.00 in 35 W/m2
16:06 54.3 °F 46.9 °F 29.86 in ESE 3.0 mph 9.0 mph 76 % 0.00 in 40 W/m2
16:11 54.3 °F 46.9 °F 29.86 in ESE 5.0 mph 9.0 mph 76 % 0.00 in 44 W/m2
16:16 54.3 °F 46.9 °F 29.86 in ESE 6.0 mph 9.0 mph 76 % 0.00 in 49 W/m2
16:21 54.3 °F 46.9 °F 29.86 in SE 6.0 mph 9.0 mph 76 % 0.00 in 54 W/m2
16:26 54.3 °F 46.9 °F 29.86 in SE 5.0 mph 9.0 mph 76 % 0.00 in 49 W/m2
16:31 54.5 °F 47.1 °F 29.86 in SE 4.0 mph 7.0 mph 76 % 0.00 in 39 W/m2
16:36 54.5 °F 47.1 °F 29.86 in ESE 3.0 mph 7.0 mph 76 % 0.00 in 26 W/m2
16:41 54.5 °F 47.1 °F 29.86 in ESE 3.0 mph 7.0 mph 76 % 0.00 in 14 W/m2
16:46 54.5 °F 47.1 °F 29.86 in ESE 3.0 mph 7.0 mph 76 % 0.00 in 14 W/m2
16:52 54.5 °F 47.1 °F 29.86 in ESE 3.0 mph 7.0 mph 76 % 0.00 in 16 W/m2
16:57 54.5 °F 47.1 °F 29.86 in ESE 3.0 mph 7.0 mph 76 % 0.00 in 16 W/m2
17:02 54.5 °F 47.1 °F 29.85 in ESE 3.0 mph 7.0 mph 76 % 0.00 in 14 W/m2
17:07 54.5 °F 47.1 °F 29.85 in ESE 3.0 mph 6.0 mph 76 % 0.00 in 16 W/m2
17:12 54.3 °F 47.3 °F 29.85 in ESE 3.0 mph 6.0 mph 77 % 0.00 in 12 W/m2
17:17 54.3 °F 47.3 °F 29.85 in ESE 3.0 mph 6.0 mph 77 % 0.00 in 9 W/m2
17:22 54.3 °F 47.3 °F 29.85 in SE 3.0 mph 7.0 mph 77 % 0.00 in 7 W/m2
17:27 54.3 °F 47.3 °F 29.85 in SE 4.0 mph 8.0 mph 77 % 0.00 in 9 W/m2
17:32 54.1 °F 47.4 °F 29.85 in SE 5.0 mph 9.0 mph 78 % 0.00 in 5 W/m2
17:37 54.1 °F 47.4 °F 29.85 in SE 4.0 mph 9.0 mph 78 % 0.00 in 0 W/m2
17:42 54.1 °F 47.4 °F 29.85 in ESE 4.0 mph 8.0 mph 78 % 0.00 in 0 W/m2
17:47 54.0 °F 47.3 °F 29.85 in ESE 3.0 mph 7.0 mph 78 % 0.00 in 0 W/m2
17:52 54.0 °F 47.3 °F 29.85 in ESE 3.0 mph 7.0 mph 78 % 0.00 in 0 W/m2
17:57 54.0 °F 47.6 °F 29.85 in ESE 3.0 mph 6.0 mph 79 % 0.00 in 0 W/m2
18:02 54.0 °F 47.6 °F 29.85 in ESE 4.0 mph 7.0 mph 79 % 0.00 in 0 W/m2
18:07 54.0 °F 47.6 °F 29.85 in ESE 3.0 mph 7.0 mph 79 % 0.00 in 0 W/m2
18:12 53.8 °F 47.4 °F 29.85 in ESE 3.0 mph 7.0 mph 79 % 0.00 in 0 W/m2
18:17 53.8 °F 47.4 °F 29.85 in SE 3.0 mph 6.0 mph 79 % 0.00 in 0 W/m2
18:22 53.8 °F 47.4 °F 29.85 in SE 3.0 mph 6.0 mph 79 % 0.00 in 0 W/m2
18:27 53.8 °F 47.4 °F 29.85 in SE 2.0 mph 6.0 mph 79 % 0.00 in 0 W/m2
18:32 53.8 °F 47.8 °F 29.84 in SE 2.0 mph 7.0 mph 80 % 0.00 in 0 W/m2
18:37 53.8 °F 47.8 °F 29.84 in SE 2.0 mph 7.0 mph 80 % 0.00 in 0 W/m2
18:39 53.6 °F 47.6 °F 29.84 in ESE 3.0 mph 10.0 mph 80 % 0.00 in 0 W/m2
18:44 53.6 °F 47.9 °F 29.84 in ESE 5.0 mph 10.0 mph 81 % 0.00 in 0 W/m2
18:49 53.6 °F 47.9 °F 29.84 in ESE 6.0 mph 11.0 mph 81 % 0.00 in 0 W/m2
18:54 53.6 °F 47.9 °F 29.84 in SE 6.0 mph 11.0 mph 81 % 0.00 in 0 W/m2
18:59 53.6 °F 47.9 °F 29.84 in SE 6.0 mph 11.0 mph 81 % 0.00 in 0 W/m2
19:04 53.6 °F 47.9 °F 29.84 in SE 6.0 mph 11.0 mph 81 % 0.00 in 0 W/m2
19:09 53.6 °F 48.2 °F 29.84 in SE 4.0 mph 12.0 mph 82 % 0.00 in 0 W/m2
19:14 53.6 °F 48.2 °F 29.84 in SE 5.0 mph 12.0 mph 82 % 0.00 in 0 W/m2
19:19 53.6 °F 48.2 °F 29.84 in SE 6.0 mph 12.0 mph 82 % 0.00 in 0 W/m2
19:24 53.6 °F 48.2 °F 29.85 in SE 5.0 mph 9.0 mph 82 % 0.00 in 0 W/m2
19:29 53.6 °F 48.6 °F 29.84 in SE 4.0 mph 8.0 mph 83 % 0.00 in 0 W/m2
19:34 53.6 °F 48.6 °F 29.84 in SE 5.0 mph 9.0 mph 83 % 0.00 in 0 W/m2
19:39 53.4 °F 48.7 °F 29.84 in ESE 5.0 mph 9.0 mph 84 % 0.00 in 0 W/m2
19:44 53.4 °F 48.7 °F 29.84 in SE 5.0 mph 9.0 mph 84 % 0.00 in 0 W/m2
19:49 53.2 °F 49.2 °F 29.84 in SE 6.0 mph 10.0 mph 86 % 0.00 in 0 W/m2
19:54 53.1 °F 49.3 °F 29.84 in SE 6.0 mph 10.0 mph 87 % 0.00 in 0 W/m2
19:59 52.9 °F 49.4 °F 29.84 in SE 5.0 mph 10.0 mph 88 % 0.00 in 0 W/m2
20:04 52.9 °F 49.7 °F 29.84 in SE 4.0 mph 8.0 mph 89 % 0.00 in 0 W/m2
20:09 52.7 °F 49.8 °F 29.84 in ESE 4.0 mph 7.0 mph 90 % 0.00 in 0 W/m2
20:14 52.5 °F 50.0 °F 29.84 in ESE 3.0 mph 7.0 mph 91 % 0.00 in 0 W/m2
20:19 52.3 °F 49.8 °F 29.84 in East 1.0 mph 5.0 mph 91 % 0.00 in 0 W/m2
20:24 52.3 °F 50.1 °F 29.84 in Calm   4.0 mph 92 % 0.00 in 0 W/m2
20:29 52.3 °F 50.1 °F 29.84 in East 1.0 mph 5.0 mph 92 % 0.00 in 0 W/m2
20:35 52.2 °F 49.9 °F 29.84 in East 2.0 mph 6.0 mph 92 % 0.00 in 0 W/m2
20:40 52.2 °F 49.9 °F 29.84 in East 2.0 mph 6.0 mph 92 % 0.00 in 0 W/m2
20:50 52.2 °F 50.2 °F 29.83 in East 1.0 mph 5.0 mph 93 % 0.00 in 0 W/m2
20:55 52.0 °F 50.0 °F 29.83 in East 1.0 mph 5.0 mph 93 % 0.00 in 0 W/m2
21:00 52.0 °F 50.0 °F 29.83 in East 2.0 mph 5.0 mph 93 % 0.00 in 0 W/m2
21:05 52.0 °F 50.0 °F 29.83 in ESE 2.0 mph 5.0 mph 93 % 0.00 in 0 W/m2
21:10 52.0 °F 50.3 °F 29.83 in East 1.0 mph 5.0 mph 94 % 0.00 in 0 W/m2
21:15 52.0 °F 50.3 °F 29.83 in East 1.0 mph 5.0 mph 94 % 0.00 in 0 W/m2
21:20 52.0 °F 50.3 °F 29.83 in East 1.0 mph 5.0 mph 94 % 0.00 in 0 W/m2
21:25 52.0 °F 50.3 °F 29.83 in Calm   4.0 mph 94 % 0.00 in 0 W/m2
21:30 52.0 °F 50.3 °F 29.83 in Calm     94 % 0.00 in 0 W/m2
21:35 52.0 °F 50.3 °F 29.83 in Calm   2.0 mph 94 % 0.00 in 0 W/m2
21:40 52.0 °F 50.3 °F 29.83 in Calm   2.0 mph 94 % 0.01 in 0 W/m2
21:45 52.0 °F 50.6 °F 29.83 in Calm   1.0 mph 95 % 0.01 in 0 W/m2
21:50 52.0 °F 50.6 °F 29.83 in Calm   1.0 mph 95 % 0.01 in 0 W/m2
21:56 52.0 °F 50.6 °F 29.82 in Calm   4.0 mph 95 % 0.01 in 0 W/m2
22:01 51.8 °F 50.4 °F 29.82 in East 1.0 mph 4.0 mph 95 % 0.01 in 0 W/m2
22:06 51.8 °F 50.4 °F 29.82 in ENE 1.0 mph 6.0 mph 95 % 0.01 in 0 W/m2
22:12 51.8 °F 50.4 °F 29.82 in East 1.0 mph 5.0 mph 95 % 0.01 in 0 W/m2
22:17 51.6 °F 50.2 °F 29.82 in East 1.0 mph 5.0 mph 95 % 0.01 in 0 W/m2
22:27 51.6 °F 50.2 °F 29.81 in Calm   4.0 mph 95 % 0.02 in 0 W/m2
22:32 51.6 °F 50.2 °F 29.81 in East 1.0 mph 6.0 mph 95 % 0.02 in 0 W/m2
22:37 51.6 °F 50.2 °F 29.81 in East 2.0 mph 6.0 mph 95 % 0.01 in 0 W/m2
22:42 51.4 °F 50.1 °F 29.81 in East 2.0 mph 5.0 mph 95 % 0.01 in 0 W/m2
22:47 51.4 °F 50.1 °F 29.81 in East 2.0 mph 5.0 mph 95 % 0.01 in 0 W/m2
22:52 51.4 °F 50.1 °F 29.81 in East 1.0 mph 5.0 mph 95 % 0.01 in 0 W/m2
22:57 51.4 °F 50.1 °F 29.80 in Calm   2.0 mph 95 % 0.01 in 0 W/m2
23:02 51.4 °F 50.1 °F 29.80 in Calm   2.0 mph 95 % 0.01 in 0 W/m2
23:07 51.4 °F 50.3 °F 29.80 in East 1.0 mph 4.0 mph 96 % 0.01 in 0 W/m2
23:12 51.4 °F 50.3 °F 29.79 in East 1.0 mph 5.0 mph 96 % 0.01 in 0 W/m2
23:17 51.4 °F 50.3 °F 29.79 in East 1.0 mph 5.0 mph 96 % 0.01 in 0 W/m2
23:22 51.4 °F 50.3 °F 29.80 in East 1.0 mph 4.0 mph 96 % 0.01 in 0 W/m2
23:27 51.4 °F 50.3 °F 29.80 in Calm   4.0 mph 96 % 0.00 in 0 W/m2
23:32 51.4 °F 50.3 °F 29.80 in Calm   2.0 mph 96 % 0.00 in 0 W/m2
23:37 51.4 °F 50.3 °F 29.79 in East 1.0 mph 2.0 mph 96 % 0.01 in 0 W/m2
23:42 51.4 °F 50.3 °F 29.79 in East 1.0 mph 2.0 mph 96 % 0.01 in 0 W/m2
23:47 51.6 °F 50.5 °F 29.79 in East 1.0 mph 3.0 mph 96 % 0.01 in 0 W/m2
23:52 51.6 °F 50.5 °F 29.79 in East 1.0 mph 4.0 mph 96 % 0.01 in 0 W/m2
23:57 51.6 °F 50.5 °F 29.79 in East 1.0 mph 4.0 mph 96 % 0.01 in 0 W/m2
Delerius-Weather
Compliments of Weather Underground - 2.25 mb

Data updates at regular intervals.